createdAt,value
2017-12-13T00:03:43.746Z,79.2
2017-12-13T00:20:17.743Z,79.2
2017-12-13T00:36:51.715Z,78.8
2017-12-13T00:53:25.573Z,78.8
2017-12-13T01:09:59.205Z,79.2
2017-12-13T01:26:32.981Z,79.2
2017-12-13T01:43:06.594Z,79.2
2017-12-13T01:59:40.254Z,78.8
2017-12-13T02:16:13.935Z,78.8
2017-12-13T02:32:47.461Z,78.4
2017-12-13T02:49:20.893Z,78.4
2017-12-13T03:05:54.661Z,78.4
2017-12-13T03:22:27.846Z,78.4
2017-12-13T03:39:01.504Z,78.0
2017-12-13T03:55:35.168Z,78.0
2017-12-13T04:12:08.801Z,77.2
2017-12-13T04:28:42.456Z,77.2
2017-12-13T04:45:16.227Z,77.6
2017-12-13T05:01:50.044Z,76.8
2017-12-13T05:18:23.643Z,76.4
2017-12-13T05:34:57.259Z,76.4
2017-12-13T05:51:30.768Z,76.4
2017-12-13T06:08:04.333Z,76.4
2017-12-13T06:24:37.944Z,76.8
2017-12-13T06:41:11.599Z,76.8
2017-12-13T06:57:45.470Z,76.4
2017-12-13T07:14:19.488Z,76.8
2017-12-13T07:30:53.859Z,76.4
2017-12-13T07:47:28.240Z,76.4
2017-12-13T08:04:02.958Z,76.4
2017-12-13T08:20:37.614Z,76.0
2017-12-13T08:37:12.607Z,75.6
2017-12-13T08:53:47.566Z,75.6
2017-12-13T09:10:22.668Z,75.2
2017-12-13T09:26:57.901Z,75.2
2017-12-13T09:43:33.091Z,75.6
2017-12-13T10:00:08.242Z,76.0
2017-12-13T10:16:43.537Z,76.0
2017-12-13T10:33:18.758Z,76.0
2017-12-13T10:49:53.897Z,76.8
2017-12-13T11:06:29.170Z,76.8
2017-12-13T11:23:04.344Z,77.6
2017-12-13T11:39:40.298Z,78.0
2017-12-13T11:56:14.815Z,78.0
2017-12-13T12:12:49.794Z,78.4
2017-12-13T12:29:24.781Z,78.4
2017-12-13T12:46:00.394Z,78.4
2017-12-13T13:02:35.095Z,78.8
2017-12-13T13:19:10.073Z,79.2
2017-12-13T13:35:44.750Z,78.8
2017-12-13T13:52:19.456Z,78.8
2017-12-13T14:08:54.280Z,79.2
2017-12-13T14:25:29.100Z,80.0
2017-12-13T14:42:04.043Z,80.0
2017-12-13T14:58:39.237Z,79.6
2017-12-13T15:15:13.909Z,80.0
2017-12-13T15:31:48.732Z,80.4
2017-12-13T15:48:23.762Z,80.8
2017-12-13T16:04:59.436Z,80.8
2017-12-13T16:21:34.123Z,80.8
2017-12-13T16:38:10.188Z,81.2
2017-12-13T16:54:44.765Z,81.2
2017-12-13T17:11:20.036Z,81.2
2017-12-13T17:27:55.294Z,81.2
2017-12-13T17:44:30.570Z,81.2
2017-12-13T18:01:05.786Z,81.2
2017-12-13T18:17:41.015Z,81.2
2017-12-13T18:34:16.265Z,80.8
2017-12-13T18:50:51.402Z,80.8
2017-12-13T19:24:01.820Z,80.8
2017-12-13T19:40:37.043Z,80.8
2017-12-13T19:57:12.437Z,80.8
2017-12-13T20:13:47.675Z,80.8
2017-12-13T20:30:23.031Z,81.2
2017-12-13T20:46:58.445Z,81.6
2017-12-13T21:03:34.053Z,81.6
2017-12-13T21:20:10.040Z,81.6
2017-12-13T21:36:45.211Z,81.6
2017-12-13T21:53:21.044Z,82.0
2017-12-13T22:09:56.786Z,82.4
2017-12-13T22:26:32.684Z,82.0
2017-12-13T22:43:08.280Z,82.4
2017-12-13T22:59:44.201Z,82.4
2017-12-13T23:16:20.320Z,82.4
2017-12-13T23:32:56.554Z,82.4
2017-12-13T23:49:32.748Z,82.0
